CheckWX is a tool to help pilots better visualize weather data.  It is not intended as a substitute for an official pre-flight weather briefing.

11:20:32 UTC

KDVT TAF
Phoenix Deer Valley Airport
Phoenix, Arizona, USA
KDVT 170826Z 1708/1806 11005KT P6SM SKC FM172000 22010KT P6SM SKC FM180500 VRB06KT P6SM SKC

Sep-17@
08:00 UTC

Sep-17 @ 08:00 UTC

Sep-17@
20:00 UTC

Sep-17 @ 20:00 UTC

KDVT 170826Z 1708/1806 11005KT P6SM SKC
Wind
  • 110° at 5 KTS
Cloud Levels
  • Clear skies

Sep-17@
20:00 UTC

Sep-17 @ 20:00 UTC

Sep-18@
05:00 UTC

Sep-18 @ 05:00 UTC

FM172000 22010KT P6SM SKC

From

From Standard forecast or significant change

Wind
  • 220° at 10 KTS
Cloud Levels
  • Clear skies

Sep-18@
05:00 UTC

Sep-18 @ 05:00 UTC

Sep-18@
06:00 UTC

Sep-18 @ 06:00 UTC

FM180500 VRB06KT P6SM SKC

From

From Standard forecast or significant change

Wind
  • Variable at 6 KTS
Cloud Levels
  • Clear skies